createdAt,value
2022-07-28T00:00:44.995Z,14.81
2022-07-28T00:03:11.762Z,14.50
2022-07-28T00:05:38.546Z,14.18
2022-07-28T00:08:05.432Z,14.01
2022-07-28T00:10:32.381Z,14.26
2022-07-28T00:12:59.956Z,14.13
2022-07-28T00:15:27.349Z,14.26
2022-07-28T00:17:54.240Z,14.12
2022-07-28T00:20:21.334Z,13.99
2022-07-28T00:22:48.319Z,14.03
2022-07-28T00:25:15.275Z,14.23
2022-07-28T00:27:42.107Z,14.06
2022-07-28T00:30:09.980Z,14.51
2022-07-28T00:32:37.667Z,14.61
2022-07-28T00:35:08.330Z,13.93
2022-07-28T00:37:35.778Z,14.02
2022-07-28T00:40:10.109Z,13.83
2022-07-28T00:42:37.386Z,13.62
2022-07-28T00:45:05.048Z,13.76
2022-07-28T00:47:33.415Z,13.82
2022-07-28T00:50:01.669Z,13.76
2022-07-28T00:52:28.752Z,13.51
2022-07-28T00:54:56.723Z,13.88
2022-07-28T00:57:23.499Z,13.75
2022-07-28T00:59:50.282Z,13.64
2022-07-28T01:02:17.365Z,13.41
2022-07-28T01:04:44.188Z,13.19
2022-07-28T01:07:25.673Z,13.42
2022-07-28T01:10:08.711Z,13.54
2022-07-28T01:13:12.762Z,13.44
2022-07-28T01:15:48.830Z,13.86
2022-07-28T01:18:32.557Z,13.67
2022-07-28T01:21:07.543Z,13.40
2022-07-28T01:23:50.576Z,13.38
2022-07-28T01:26:39.688Z,13.41
2022-07-28T01:29:28.476Z,13.48
2022-07-28T01:32:10.607Z,13.34
2022-07-28T01:34:52.080Z,13.31
2022-07-28T01:37:25.056Z,13.40
2022-07-28T01:39:58.948Z,13.11
2022-07-28T01:42:33.432Z,13.19
2022-07-28T01:45:02.267Z,12.94
2022-07-28T01:47:30.451Z,13.23
2022-07-28T01:50:02.519Z,12.91
2022-07-28T01:52:31.173Z,12.95
2022-07-28T01:55:01.032Z,12.92
2022-07-28T01:57:33.219Z,12.88
2022-07-28T02:00:01.095Z,13.00
2022-07-28T02:02:31.398Z,13.08
2022-07-28T02:05:00.238Z,12.92
2022-07-28T02:07:29.595Z,13.09
2022-07-28T02:09:58.817Z,13.02
2022-07-28T02:12:26.756Z,12.96
2022-07-28T02:14:54.854Z,12.94
2022-07-28T02:17:27.899Z,12.96
2022-07-28T02:19:57.163Z,12.79
2022-07-28T02:22:26.801Z,12.90
2022-07-28T02:24:55.535Z,12.85
2022-07-28T02:27:33.545Z,12.84
2022-07-28T02:30:12.340Z,12.96
2022-07-28T02:32:49.700Z,12.57
2022-07-28T02:35:32.218Z,12.57
2022-07-28T02:38:10.447Z,12.53
2022-07-28T02:40:38.864Z,12.68
2022-07-28T02:43:10.393Z,12.60
2022-07-28T02:45:40.179Z,12.80
2022-07-28T02:48:12.048Z,12.70
2022-07-28T02:50:41.042Z,12.69
2022-07-28T02:53:15.639Z,12.85
2022-07-28T02:55:46.323Z,12.76
2022-07-28T02:58:15.626Z,12.77
2022-07-28T03:00:43.890Z,12.50
2022-07-28T03:03:11.345Z,12.58
2022-07-28T03:05:41.159Z,12.92
2022-07-28T03:08:09.031Z,12.65
2022-07-28T03:10:36.002Z,12.61
2022-07-28T03:13:05.337Z,12.30
2022-07-28T03:15:32.154Z,12.63
2022-07-28T03:18:00.803Z,12.65
2022-07-28T03:20:27.924Z,12.87
2022-07-28T03:22:55.377Z,12.82
2022-07-28T03:25:42.450Z,12.82
2022-07-28T03:28:15.029Z,12.70
2022-07-28T03:30:45.273Z,12.74
2022-07-28T03:33:12.624Z,12.66
2022-07-28T03:35:44.953Z,12.58
2022-07-28T03:38:14.794Z,12.41
2022-07-28T03:40:47.200Z,12.65
2022-07-28T03:43:16.648Z,12.37
2022-07-28T03:45:46.950Z,12.48
2022-07-28T03:48:14.880Z,12.47
2022-07-28T03:50:42.005Z,12.27
2022-07-28T03:53:19.926Z,12.37
2022-07-28T03:55:50.680Z,12.23
2022-07-28T03:58:26.165Z,12.51
2022-07-28T04:00:56.659Z,12.63
2022-07-28T04:03:42.512Z,12.80
2022-07-28T04:06:13.579Z,12.73
2022-07-28T04:08:40.372Z,12.54
2022-07-28T04:11:07.204Z,12.63
2022-07-28T04:13:36.576Z,12.38
2022-07-28T04:16:03.983Z,12.46
2022-07-28T04:18:31.090Z,12.47
2022-07-28T04:20:58.849Z,12.45
2022-07-28T04:23:25.668Z,12.59
2022-07-28T04:25:52.340Z,12.74
2022-07-28T04:28:19.008Z,12.79
2022-07-28T04:30:45.985Z,12.73
2022-07-28T04:33:13.248Z,12.62
2022-07-28T04:35:40.496Z,12.88
2022-07-28T04:38:07.707Z,12.80
2022-07-28T04:40:34.518Z,12.70
2022-07-28T04:43:01.537Z,12.63
2022-07-28T04:45:28.363Z,12.94
2022-07-28T04:47:55.062Z,13.10
2022-07-28T04:50:21.888Z,13.07
2022-07-28T04:52:50.053Z,13.22
2022-07-28T04:55:18.342Z,13.53
2022-07-28T04:57:45.671Z,13.30
2022-07-28T05:00:14.688Z,13.49
2022-07-28T05:02:44.546Z,13.58
2022-07-28T05:05:12.594Z,14.00
2022-07-28T05:07:40.092Z,14.09
2022-07-28T05:10:08.909Z,14.25
2022-07-28T05:12:36.123Z,14.36
2022-07-28T05:15:03.915Z,14.29
2022-07-28T05:17:30.624Z,14.27
2022-07-28T05:19:57.487Z,14.23
2022-07-28T05:22:24.281Z,14.69
2022-07-28T05:24:51.097Z,14.84
2022-07-28T05:27:17.845Z,14.89
2022-07-28T05:29:47.252Z,15.22
2022-07-28T05:32:16.986Z,15.53
2022-07-28T05:34:45.335Z,15.74
2022-07-28T05:37:12.260Z,15.70
2022-07-28T05:39:39.119Z,15.30
2022-07-28T05:42:06.206Z,15.24
2022-07-28T05:44:37.962Z,15.30
2022-07-28T05:47:05.900Z,15.34
2022-07-28T05:49:33.059Z,15.46
2022-07-28T05:52:00.033Z,15.34
2022-07-28T05:54:26.769Z,15.41
2022-07-28T05:56:53.517Z,15.44
2022-07-28T05:59:20.280Z,15.53
2022-07-28T06:01:47.165Z,15.68
2022-07-28T06:04:26.735Z,15.65
2022-07-28T06:06:54.758Z,15.87
2022-07-28T06:09:21.781Z,15.98
2022-07-28T06:11:50.271Z,15.96
2022-07-28T06:14:17.388Z,15.77
2022-07-28T06:16:44.938Z,15.97
2022-07-28T06:19:12.121Z,16.15
2022-07-28T06:21:39.019Z,16.34
2022-07-28T06:24:08.513Z,16.58
2022-07-28T06:26:43.701Z,16.59
2022-07-28T06:29:11.519Z,16.63
2022-07-28T06:31:38.969Z,16.50
2022-07-28T06:34:06.615Z,16.73
2022-07-28T06:36:33.634Z,17.01
2022-07-28T06:39:00.335Z,17.23
2022-07-28T06:41:27.531Z,17.43
2022-07-28T06:43:54.372Z,17.54
2022-07-28T06:46:21.207Z,17.77
2022-07-28T06:48:48.506Z,17.68
2022-07-28T06:51:19.018Z,17.47
2022-07-28T06:53:48.187Z,17.61
2022-07-28T06:56:15.666Z,17.85
2022-07-28T06:58:46.479Z,18.11
2022-07-28T07:01:15.252Z,18.14
2022-07-28T07:03:43.568Z,18.24
2022-07-28T07:06:11.091Z,18.26
2022-07-28T07:08:38.413Z,18.76
2022-07-28T07:11:05.489Z,18.82
2022-07-28T07:13:33.022Z,18.56
2022-07-28T07:15:59.942Z,18.73
2022-07-28T07:18:26.813Z,18.99
2022-07-28T07:20:54.587Z,19.19
2022-07-28T07:23:21.634Z,19.09
2022-07-28T07:25:48.483Z,19.27
2022-07-28T07:28:15.372Z,19.33
2022-07-28T07:30:43.508Z,19.40
2022-07-28T07:33:10.509Z,19.90
2022-07-28T07:35:38.427Z,19.66
2022-07-28T07:38:05.670Z,19.61
2022-07-28T07:40:33.744Z,19.67
2022-07-28T07:43:00.570Z,19.88
2022-07-28T07:45:27.428Z,20.12
2022-07-28T07:47:54.256Z,20.07
2022-07-28T07:50:21.031Z,20.08
2022-07-28T07:52:49.996Z,20.10
2022-07-28T07:55:17.229Z,20.38
2022-07-28T07:57:44.858Z,20.60
2022-07-28T08:00:29.313Z,20.71
2022-07-28T08:02:57.979Z,20.88
2022-07-28T08:05:34.906Z,20.93
2022-07-28T08:08:04.797Z,21.18
2022-07-28T08:10:31.602Z,21.41
2022-07-28T08:12:58.434Z,21.67
2022-07-28T08:15:25.565Z,21.28
2022-07-28T08:17:53.073Z,21.21
2022-07-28T08:20:20.093Z,21.48
2022-07-28T08:22:48.720Z,21.89
2022-07-28T08:25:15.528Z,21.83
2022-07-28T08:27:42.328Z,22.04
2022-07-28T08:30:10.523Z,21.97
2022-07-28T08:32:37.322Z,22.13
2022-07-28T08:35:31.953Z,21.91
2022-07-28T08:37:52.085Z,22.07
2022-07-28T08:40:19.037Z,21.88
2022-07-28T08:43:08.791Z,22.26
2022-07-28T08:45:37.581Z,22.16
2022-07-28T08:48:08.852Z,22.23
2022-07-28T08:50:39.429Z,22.66
2022-07-28T08:53:07.961Z,22.29
2022-07-28T08:55:36.206Z,22.15
2022-07-28T08:58:04.705Z,22.47
2022-07-28T09:00:31.904Z,22.64
2022-07-28T09:02:59.944Z,22.62
2022-07-28T09:05:27.628Z,22.57
2022-07-28T09:07:55.472Z,22.80
2022-07-28T09:10:23.285Z,23.10
2022-07-28T09:12:50.498Z,22.72
2022-07-28T09:15:17.328Z,22.65
2022-07-28T09:17:44.167Z,22.98
2022-07-28T09:20:12.123Z,22.68
2022-07-28T09:22:57.216Z,23.26
2022-07-28T09:25:24.407Z,23.64
2022-07-28T09:27:51.883Z,23.41
2022-07-28T09:30:33.478Z,23.46
2022-07-28T09:33:41.218Z,23.33
2022-07-28T09:36:02.223Z,23.51
2022-07-28T09:38:40.241Z,23.11
2022-07-28T09:41:07.485Z,23.39
2022-07-28T09:43:43.231Z,23.97
2022-07-28T09:46:15.189Z,23.85
2022-07-28T09:48:51.433Z,23.24
2022-07-28T09:51:22.035Z,23.88
2022-07-28T09:53:49.160Z,23.77
2022-07-28T09:56:15.957Z,23.47
2022-07-28T09:58:54.133Z,23.49
2022-07-28T10:01:22.025Z,23.72
2022-07-28T10:03:56.005Z,23.97
2022-07-28T10:06:31.542Z,24.60
2022-07-28T10:09:03.836Z,24.19
2022-07-28T10:11:31.471Z,24.35
2022-07-28T10:14:00.230Z,24.48
2022-07-28T10:16:29.628Z,24.96
2022-07-28T10:18:57.942Z,24.44
2022-07-28T10:21:26.060Z,24.66
2022-07-28T10:23:58.503Z,24.60
2022-07-28T10:26:32.141Z,24.55
2022-07-28T10:29:03.704Z,24.72
2022-07-28T10:31:34.845Z,24.23
2022-07-28T10:34:03.536Z,24.67
2022-07-28T10:36:32.732Z,24.56
2022-07-28T10:39:07.705Z,24.52
2022-07-28T10:41:39.904Z,24.24
2022-07-28T10:44:08.280Z,24.86
2022-07-28T10:46:37.321Z,24.91
2022-07-28T10:49:05.108Z,24.18
2022-07-28T10:51:48.830Z,25.24
2022-07-28T10:54:30.239Z,25.35
2022-07-28T10:56:59.900Z,24.45
2022-07-28T11:00:15.547Z,24.64
2022-07-28T11:02:51.818Z,25.19
2022-07-28T11:05:27.507Z,25.57
2022-07-28T11:07:54.699Z,25.61
2022-07-28T11:10:22.372Z,25.47
2022-07-28T11:12:54.839Z,25.19
2022-07-28T11:15:40.189Z,25.33
2022-07-28T11:18:09.296Z,25.30
2022-07-28T11:20:52.339Z,25.33
2022-07-28T11:23:46.731Z,25.77
2022-07-28T11:26:27.504Z,25.63
2022-07-28T11:29:00.322Z,25.81
2022-07-28T11:31:45.044Z,26.57
2022-07-28T11:34:22.569Z,26.34
2022-07-28T11:37:02.582Z,26.23
2022-07-28T11:39:41.263Z,25.92
2022-07-28T11:42:32.410Z,25.52
2022-07-28T11:45:24.268Z,25.99
2022-07-28T11:48:21.391Z,26.10
2022-07-28T11:51:15.943Z,26.04
2022-07-28T11:53:45.939Z,26.61
2022-07-28T11:56:23.947Z,26.90
2022-07-28T11:59:01.972Z,26.83
2022-07-28T12:01:31.960Z,26.72
2022-07-28T12:04:00.303Z,26.89
2022-07-28T12:06:40.216Z,27.04
2022-07-28T12:09:09.326Z,27.13
2022-07-28T12:11:38.921Z,27.13
2022-07-28T12:14:24.163Z,27.06
2022-07-28T12:16:51.522Z,26.81
2022-07-28T12:19:19.948Z,26.74
2022-07-28T12:21:50.210Z,27.10
2022-07-28T12:24:30.597Z,26.80
2022-07-28T12:27:00.433Z,27.28
2022-07-28T12:29:35.938Z,27.73
2022-07-28T12:32:05.484Z,27.34
2022-07-28T12:34:37.933Z,27.65
2022-07-28T12:37:09.527Z,27.16
2022-07-28T12:39:39.306Z,27.46
2022-07-28T12:42:08.417Z,27.60
2022-07-28T12:44:39.952Z,27.42
2022-07-28T12:47:09.001Z,27.80
2022-07-28T12:49:37.054Z,27.46
2022-07-28T12:52:18.395Z,27.35
2022-07-28T12:54:54.418Z,27.37
2022-07-28T12:57:49.964Z,27.87
2022-07-28T13:00:20.241Z,27.96
2022-07-28T13:02:48.539Z,26.99
2022-07-28T13:05:57.230Z,28.45
2022-07-28T13:08:27.587Z,27.59
2022-07-28T13:10:58.624Z,27.83
2022-07-28T13:13:26.108Z,27.49
2022-07-28T13:16:15.445Z,29.28
2022-07-28T13:18:57.714Z,28.90
2022-07-28T13:21:38.598Z,27.41
2022-07-28T13:24:05.565Z,29.40
2022-07-28T13:26:32.239Z,28.03
2022-07-28T13:29:03.476Z,27.88
2022-07-28T13:31:39.731Z,27.96
2022-07-28T13:34:08.437Z,28.82
2022-07-28T13:36:36.960Z,28.18
2022-07-28T13:39:05.203Z,28.68
2022-07-28T13:41:57.744Z,29.00
2022-07-28T13:44:18.660Z,28.57
2022-07-28T13:46:47.219Z,28.41
2022-07-28T13:49:16.547Z,29.77
2022-07-28T13:51:43.407Z,30.14
2022-07-28T13:54:10.085Z,30.21
2022-07-28T13:56:37.580Z,28.78
2022-07-28T13:59:10.482Z,28.92
2022-07-28T14:01:43.122Z,28.15
2022-07-28T14:04:14.977Z,28.56
2022-07-28T14:06:47.231Z,29.85
2022-07-28T14:09:18.092Z,30.23
2022-07-28T14:11:49.665Z,29.00
2022-07-28T14:14:23.909Z,29.49
2022-07-28T14:16:52.792Z,29.06
2022-07-28T14:19:23.082Z,30.34
2022-07-28T14:22:10.521Z,29.48
2022-07-28T14:24:39.864Z,27.92
2022-07-28T14:27:06.509Z,29.47
2022-07-28T14:29:33.211Z,28.58
2022-07-28T14:31:59.944Z,28.58
2022-07-28T14:34:26.648Z,28.21
2022-07-28T14:36:53.584Z,27.95
2022-07-28T14:39:20.324Z,28.52
2022-07-28T14:41:46.997Z,28.77
2022-07-28T14:44:24.643Z,30.92
2022-07-28T14:46:52.059Z,29.26
2022-07-28T14:49:18.901Z,28.81
2022-07-28T14:51:45.906Z,30.57
2022-07-28T14:54:13.243Z,29.47
2022-07-28T14:56:40.232Z,29.57
2022-07-28T14:59:06.912Z,29.11
2022-07-28T15:01:35.971Z,28.39
2022-07-28T15:04:03.604Z,28.72
2022-07-28T15:06:30.652Z,28.11
2022-07-28T15:08:58.337Z,28.44
2022-07-28T15:11:25.677Z,27.94
2022-07-28T15:13:52.409Z,27.29
2022-07-28T15:16:19.261Z,27.97
2022-07-28T15:18:46.054Z,27.12
2022-07-28T15:21:17.231Z,28.11
2022-07-28T15:23:44.503Z,27.97
2022-07-28T15:26:11.570Z,28.44
2022-07-28T15:28:38.625Z,28.94
2022-07-28T15:31:08.427Z,29.22
2022-07-28T15:33:47.880Z,31.97
2022-07-28T15:36:15.961Z,32.61
2022-07-28T15:38:47.358Z,31.28
2022-07-28T15:41:16.398Z,31.17
2022-07-28T15:43:43.268Z,30.40
2022-07-28T15:46:12.717Z,30.25
2022-07-28T15:48:43.540Z,32.25
2022-07-28T15:51:10.995Z,32.91
2022-07-28T15:53:38.692Z,34.10
2022-07-28T15:56:05.756Z,32.39
2022-07-28T15:58:32.457Z,32.19
2022-07-28T16:01:00.999Z,34.58
2022-07-28T16:03:29.906Z,33.11
2022-07-28T16:05:58.468Z,33.29
2022-07-28T16:08:25.419Z,36.10
2022-07-28T16:10:54.347Z,39.28
2022-07-28T16:13:28.691Z,33.21
2022-07-28T16:16:08.895Z,34.86
2022-07-28T16:18:37.410Z,32.42
2022-07-28T16:21:04.945Z,29.74
2022-07-28T16:23:31.859Z,30.54
2022-07-28T16:25:59.214Z,30.28
2022-07-28T16:28:26.524Z,29.56
2022-07-28T16:30:53.998Z,28.46
2022-07-28T16:33:21.088Z,28.72
2022-07-28T16:35:47.900Z,28.83
2022-07-28T16:38:14.640Z,28.73
2022-07-28T16:40:41.358Z,27.81
2022-07-28T16:43:08.079Z,28.39
2022-07-28T16:45:35.902Z,30.61
2022-07-28T16:48:03.888Z,33.95
2022-07-28T16:50:31.947Z,27.90
2022-07-28T16:52:59.067Z,26.65
2022-07-28T16:55:26.557Z,26.96
2022-07-28T16:57:53.616Z,26.66
2022-07-28T17:00:21.461Z,26.50
2022-07-28T17:02:48.251Z,26.65
2022-07-28T17:05:14.995Z,28.98
2022-07-28T17:07:45.152Z,27.30
2022-07-28T17:10:15.187Z,29.00
2022-07-28T17:12:49.911Z,29.33
2022-07-28T17:15:20.071Z,28.46
2022-07-28T17:17:53.046Z,28.66
2022-07-28T17:20:20.558Z,27.15
2022-07-28T17:22:47.547Z,27.69
2022-07-28T17:28:04.519Z,26.73
2022-07-28T17:30:32.874Z,26.66
2022-07-28T17:33:06.114Z,26.71
2022-07-28T17:35:35.918Z,26.31
2022-07-28T17:38:04.418Z,26.34
2022-07-28T17:40:31.073Z,26.05
2022-07-28T17:42:58.046Z,26.24
2022-07-28T17:45:24.850Z,26.15
2022-07-28T17:47:51.844Z,25.98
2022-07-28T17:50:18.729Z,25.44
2022-07-28T17:52:45.915Z,25.51
2022-07-28T17:55:35.695Z,25.72
2022-07-28T17:58:42.181Z,25.52
2022-07-28T18:01:11.970Z,25.19
2022-07-28T18:03:59.522Z,25.13
2022-07-28T18:06:35.622Z,25.08
2022-07-28T18:09:06.284Z,24.76
2022-07-28T18:11:57.707Z,24.26
2022-07-28T18:14:25.841Z,23.94
2022-07-28T18:16:52.621Z,23.79
2022-07-28T18:19:19.426Z,23.68
2022-07-28T18:21:46.212Z,23.37
2022-07-28T18:24:13.404Z,22.65
2022-07-28T18:26:40.598Z,22.93
2022-07-28T18:29:07.276Z,23.43
2022-07-28T18:31:34.112Z,23.44
2022-07-28T18:34:01.534Z,23.26
2022-07-28T18:36:28.274Z,23.21
2022-07-28T18:38:57.639Z,22.34
2022-07-28T18:41:24.321Z,22.64
2022-07-28T18:43:51.049Z,21.79
2022-07-28T18:46:17.962Z,21.92
2022-07-28T18:48:44.703Z,22.09
2022-07-28T18:51:15.754Z,21.69
2022-07-28T18:53:42.462Z,21.99
2022-07-28T18:56:09.151Z,21.80
2022-07-28T18:58:35.848Z,21.84
2022-07-28T19:01:02.652Z,21.70
2022-07-28T19:03:31.063Z,21.69
2022-07-28T19:05:58.170Z,21.59
2022-07-28T19:08:24.863Z,21.26
2022-07-28T19:10:51.568Z,21.01
2022-07-28T19:13:18.384Z,21.59
2022-07-28T19:15:46.038Z,22.04
2022-07-28T19:18:12.888Z,22.07
2022-07-28T19:20:40.259Z,20.63
2022-07-28T19:23:07.038Z,20.85
2022-07-28T19:25:35.981Z,20.66
2022-07-28T19:28:04.340Z,20.41
2022-07-28T19:30:32.141Z,20.50
2022-07-28T19:33:00.000Z,19.89
2022-07-28T19:35:26.850Z,20.72
2022-07-28T19:37:55.402Z,20.60
2022-07-28T19:40:25.066Z,20.61
2022-07-28T19:42:51.844Z,20.67
2022-07-28T19:45:18.837Z,20.62
2022-07-28T19:47:45.531Z,20.49
2022-07-28T19:50:16.644Z,20.51
2022-07-28T19:52:43.456Z,20.57
2022-07-28T19:55:10.153Z,20.32
2022-07-28T19:57:36.963Z,20.38
2022-07-28T20:00:04.798Z,20.51
2022-07-28T20:02:31.614Z,20.28
2022-07-28T20:04:58.476Z,19.95
2022-07-28T20:07:25.291Z,20.42
2022-07-28T20:09:51.994Z,20.38
2022-07-28T20:12:18.724Z,20.25
2022-07-28T20:14:45.489Z,20.35
2022-07-28T20:17:29.622Z,20.13
2022-07-28T20:19:58.914Z,20.20
2022-07-28T20:22:25.715Z,20.32
2022-07-28T20:24:52.440Z,19.60
2022-07-28T20:27:19.181Z,19.52
2022-07-28T20:29:45.977Z,19.53
2022-07-28T20:32:12.634Z,19.12
2022-07-28T20:34:39.409Z,19.41
2022-07-28T20:37:06.337Z,19.91
2022-07-28T20:39:53.077Z,19.49
2022-07-28T20:42:19.828Z,19.25
2022-07-28T20:44:46.492Z,19.34
2022-07-28T20:47:13.285Z,19.34
2022-07-28T20:49:40.211Z,18.85
2022-07-28T20:52:06.934Z,18.74
2022-07-28T20:54:33.818Z,18.62
2022-07-28T20:57:00.668Z,18.59
2022-07-28T20:59:28.180Z,18.50
2022-07-28T21:01:55.578Z,18.51
2022-07-28T21:04:24.616Z,19.04
2022-07-28T21:06:55.370Z,19.10
2022-07-28T21:09:27.712Z,19.26
2022-07-28T21:11:54.744Z,18.38
2022-07-28T21:14:21.825Z,18.36
2022-07-28T21:16:48.588Z,18.35
2022-07-28T21:19:15.391Z,18.29
2022-07-28T21:21:42.231Z,18.24
2022-07-28T21:24:09.115Z,18.22
2022-07-28T21:26:35.892Z,18.31
2022-07-28T21:29:12.508Z,17.98
2022-07-28T21:32:04.135Z,17.92
2022-07-28T21:34:27.479Z,17.95
2022-07-28T21:36:54.247Z,17.84
2022-07-28T21:39:20.895Z,17.87
2022-07-28T21:41:47.608Z,17.91
2022-07-28T21:44:14.390Z,17.58
2022-07-28T21:46:43.995Z,17.85
2022-07-28T21:49:10.907Z,17.93
2022-07-28T21:51:37.910Z,18.21
2022-07-28T21:54:04.863Z,17.73
2022-07-28T21:56:34.320Z,17.65
2022-07-28T21:59:02.557Z,17.64
2022-07-28T22:01:29.846Z,18.58
2022-07-28T22:03:57.122Z,17.92
2022-07-28T22:06:24.480Z,18.01
2022-07-28T22:08:53.762Z,17.82
2022-07-28T22:11:22.988Z,17.92
2022-07-28T22:13:49.688Z,17.88
2022-07-28T22:16:16.635Z,18.30
2022-07-28T22:18:43.389Z,18.40
2022-07-28T22:21:10.256Z,18.39
2022-07-28T22:23:37.103Z,18.33
2022-07-28T22:26:03.771Z,18.16
2022-07-28T22:28:30.878Z,18.04
2022-07-28T22:30:59.071Z,18.26
2022-07-28T22:33:39.842Z,18.12
2022-07-28T22:36:08.820Z,18.22
2022-07-28T22:38:35.877Z,18.61
2022-07-28T22:41:02.840Z,18.13
2022-07-28T22:43:33.178Z,18.14
2022-07-28T22:45:59.869Z,17.98
2022-07-28T22:48:26.703Z,18.27
2022-07-28T22:50:53.396Z,18.16
2022-07-28T22:53:20.049Z,17.76
2022-07-28T22:55:47.165Z,18.03
2022-07-28T22:58:13.801Z,17.85
2022-07-28T23:00:40.451Z,17.84
2022-07-28T23:03:07.261Z,17.88
2022-07-28T23:05:37.269Z,17.77
2022-07-28T23:08:04.125Z,17.52
2022-07-28T23:10:30.848Z,17.62
2022-07-28T23:12:58.760Z,17.96
2022-07-28T23:15:39.414Z,17.82
2022-07-28T23:18:10.322Z,17.29
2022-07-28T23:20:38.429Z,17.45
2022-07-28T23:23:05.451Z,17.13
2022-07-28T23:25:32.424Z,17.13
2022-07-28T23:27:59.092Z,17.10
2022-07-28T23:30:25.737Z,17.15
2022-07-28T23:32:53.057Z,16.94
2022-07-28T23:35:20.000Z,17.02
2022-07-28T23:37:46.791Z,16.67
2022-07-28T23:40:13.702Z,16.50
2022-07-28T23:42:40.648Z,16.56
2022-07-28T23:45:08.122Z,16.53
2022-07-28T23:47:35.047Z,16.51
2022-07-28T23:50:03.111Z,16.52
2022-07-28T23:52:29.757Z,16.46
2022-07-28T23:54:56.615Z,16.30
2022-07-28T23:57:23.301Z,16.04
2022-07-28T23:59:49.951Z,16.06
